sensor_id;sensor_type;location;lat;lon;timestamp;pressure;altitude;pressure_sealevel;temperature;humidity
6599;BME280;3335;43.198;27.918;2022-08-11T00:01:05;152418.66;;;20.72;100.00
6599;BME280;3335;43.198;27.918;2022-08-11T00:03:34;152411.13;;;20.69;100.00
6599;BME280;3335;43.198;27.918;2022-08-11T00:06:03;152424.97;;;20.75;100.00
6599;BME280;3335;43.198;27.918;2022-08-11T00:08:31;152433.75;;;20.78;100.00
6599;BME280;3335;43.198;27.918;2022-08-11T00:11:05;152442.56;;;20.82;100.00
6599;BME280;3335;43.198;27.918;2022-08-11T00:13:34;152438.81;;;20.80;100.00
6599;BME280;3335;43.198;27.918;2022-08-11T00:16:02;152431.22;;;20.77;100.00
6599;BME280;3335;43.198;27.918;2022-08-11T00:18:39;152440.06;;;20.81;100.00
6599;BME280;3335;43.198;27.918;2022-08-11T00:21:07;152433.75;;;20.78;100.00
6599;BME280;3335;43.198;27.918;2022-08-11T00:23:40;152436.28;;;20.79;100.00
6599;BME280;3335;43.198;27.918;2022-08-11T00:26:08;152436.28;;;20.79;100.00
6599;BME280;3335;43.198;27.918;2022-08-11T00:28:36;152428.75;;;20.76;100.00
6599;BME280;3335;43.198;27.918;2022-08-11T00:31:04;152370.84;;;20.53;100.00
6599;BME280;3335;43.198;27.918;2022-08-11T00:33:34;152436.28;;;20.79;100.00
6599;BME280;3335;43.198;27.918;2022-08-11T00:36:05;152428.75;;;20.76;100.00
6599;BME280;3335;43.198;27.918;2022-08-11T00:38:36;152383.41;;;20.58;100.00
6599;BME280;3335;43.198;27.918;2022-08-11T00:41:13;152383.41;;;20.58;100.00
6599;BME280;3335;43.198;27.918;2022-08-11T00:44:00;152380.94;;;20.57;100.00
6599;BME280;3335;43.198;27.918;2022-08-11T00:46:39;152403.59;;;20.66;100.00
6599;BME280;3335;43.198;27.918;2022-08-11T00:49:15;152370.84;;;20.53;100.00
6599;BME280;3335;43.198;27.918;2022-08-11T00:51:54;152396.00;;;20.63;100.00
6599;BME280;3335;43.198;27.918;2022-08-11T00:54:49;152343.19;;;20.42;100.00
6599;BME280;3335;43.198;27.918;2022-08-11T00:57:36;152387.22;;;20.60;100.00
6599;BME280;3335;43.198;27.918;2022-08-11T01:00:11;152393.53;;;20.62;100.00
6599;BME280;3335;43.198;27.918;2022-08-11T01:03:19;152408.59;;;20.68;100.00
6599;BME280;3335;43.198;27.918;2022-08-11T01:06:20;152391.00;;;20.61;100.00
6599;BME280;3335;43.198;27.918;2022-08-11T01:09:31;152403.59;;;20.66;100.00
6599;BME280;3335;43.198;27.918;2022-08-11T01:12:17;152406.06;;;20.67;100.00
6599;BME280;3335;43.198;27.918;2022-08-11T01:21:29;152416.16;;;20.71;100.00
6599;BME280;3335;43.198;27.918;2022-08-11T01:27:37;152438.81;;;20.80;100.00
6599;BME280;3335;43.198;27.918;2022-08-11T01:30:30;152423.69;;;20.74;100.00
6599;BME280;3335;43.198;27.918;2022-08-11T01:39:50;152411.13;;;20.69;100.00
6599;BME280;3335;43.198;27.918;2022-08-11T01:42:51;152414.91;;;20.71;100.00
6599;BME280;3335;43.198;27.918;2022-08-11T01:45:45;152416.16;;;20.71;100.00
6599;BME280;3335;43.198;27.918;2022-08-11T01:48:21;152413.63;;;20.70;100.00
6599;BME280;3335;43.198;27.918;2022-08-11T01:51:02;152437.53;;;20.80;100.00
6599;BME280;3335;43.198;27.918;2022-08-11T01:53:37;152443.81;;;20.82;100.00
6599;BME280;3335;43.198;27.918;2022-08-11T01:56:26;152374.63;;;20.55;100.00
6599;BME280;3335;43.198;27.918;2022-08-11T01:59:04;152380.94;;;20.57;100.00
6599;BME280;3335;43.198;27.918;2022-08-11T02:01:47;152385.94;;;20.59;100.00
6599;BME280;3335;43.198;27.918;2022-08-11T02:04:24;152407.31;;;20.68;100.00
6599;BME280;3335;43.198;27.918;2022-08-11T02:07:01;152398.53;;;20.64;100.00
6599;BME280;3335;43.198;27.918;2022-08-11T02:09:49;152392.28;;;20.62;100.00
6599;BME280;3335;43.198;27.918;2022-08-11T02:12:31;152393.53;;;20.62;100.00
6599;BME280;3335;43.198;27.918;2022-08-11T02:15:10;152368.34;;;20.52;100.00
6599;BME280;3335;43.198;27.918;2022-08-11T02:17:55;152411.13;;;20.69;100.00
6599;BME280;3335;43.198;27.918;2022-08-11T02:20:27;152426.22;;;20.75;100.00
6599;BME280;3335;43.198;27.918;2022-08-11T02:23:22;152431.22;;;20.77;100.00
6599;BME280;3335;43.198;27.918;2022-08-11T02:26:17;152421.16;;;20.73;100.00
6599;BME280;3335;43.198;27.918;2022-08-11T02:28:56;152382.16;;;20.58;100.00
6599;BME280;3335;43.198;27.918;2022-08-11T02:31:36;152419.91;;;20.73;100.00
6599;BME280;3335;43.198;27.918;2022-08-11T02:34:27;152424.97;;;20.75;100.00
6599;BME280;3335;43.198;27.918;2022-08-11T02:37:02;152406.06;;;20.67;100.00
6599;BME280;3335;43.198;27.918;2022-08-11T02:39:45;152416.16;;;20.71;100.00
6599;BME280;3335;43.198;27.918;2022-08-11T02:42:22;152406.06;;;20.67;100.00
6599;BME280;3335;43.198;27.918;2022-08-11T02:45:07;152421.16;;;20.73;100.00
6599;BME280;3335;43.198;27.918;2022-08-11T02:47:41;152461.44;;;20.89;100.00
6599;BME280;3335;43.198;27.918;2022-08-11T02:50:32;152474.03;;;20.94;100.00
6599;BME280;3335;43.198;27.918;2022-08-11T02:53:08;152414.91;;;20.71;100.00
6599;BME280;3335;43.198;27.918;2022-08-11T02:55:46;152436.28;;;20.79;100.00
6599;BME280;3335;43.198;27.918;2022-08-11T02:58:21;152462.72;;;20.90;100.00
6599;BME280;3335;43.198;27.918;2022-08-11T03:01:02;152468.97;;;20.92;100.00
6599;BME280;3335;43.198;27.918;2022-08-11T03:03:43;152471.50;;;20.93;100.00
6599;BME280;3335;43.198;27.918;2022-08-11T03:06:23;152467.72;;;20.92;100.00
6599;BME280;3335;43.198;27.918;2022-08-11T03:08:55;152463.97;;;20.90;100.00
6599;BME280;3335;43.198;27.918;2022-08-11T03:11:37;152489.09;;;21.01;100.00
6599;BME280;3335;43.198;27.918;2022-08-11T03:14:28;152484.09;;;20.99;100.00
6599;BME280;3335;43.198;27.918;2022-08-11T03:17:24;152477.78;;;20.96;100.00
6599;BME280;3335;43.198;27.918;2022-08-11T03:20:05;152501.69;;;21.06;100.00
6599;BME280;3335;43.198;27.918;2022-08-11T03:22:39;152504.22;;;21.07;100.00
6599;BME280;3335;43.198;27.918;2022-08-11T03:25:23;152501.69;;;21.06;100.00
6599;BME280;3335;43.198;27.918;2022-08-11T03:28:00;152489.09;;;21.01;100.00
6599;BME280;3335;43.198;27.918;2022-08-11T03:30:41;152453.88;;;20.86;100.00
6599;BME280;3335;43.198;27.918;2022-08-11T03:33:20;152481.56;;;20.98;100.00
6599;BME280;3335;43.198;27.918;2022-08-11T03:36:14;152486.63;;;21.00;100.00
6599;BME280;3335;43.198;27.918;2022-08-11T03:38:55;152453.88;;;20.86;100.00
6599;BME280;3335;43.198;27.918;2022-08-11T03:41:31;152484.09;;;20.99;100.00
6599;BME280;3335;43.198;27.918;2022-08-11T03:44:19;152484.09;;;20.99;100.00
6599;BME280;3335;43.198;27.918;2022-08-11T03:47:16;152472.78;;;20.94;100.00
6599;BME280;3335;43.198;27.918;2022-08-11T03:49:57;152463.97;;;20.90;100.00
6599;BME280;3335;43.198;27.918;2022-08-11T03:52:37;152461.44;;;20.89;100.00
6599;BME280;3335;43.198;27.918;2022-08-11T03:55:16;152466.47;;;20.91;100.00
6599;BME280;3335;43.198;27.918;2022-08-11T04:01:09;152467.72;;;20.92;100.00
6599;BME280;3335;43.198;27.918;2022-08-11T04:03:57;152474.03;;;20.94;100.00
6599;BME280;3335;43.198;27.918;2022-08-11T04:10:06;152477.78;;;20.96;100.00
6599;BME280;3335;43.198;27.918;2022-08-11T04:16:04;152461.44;;;20.89;100.00
6599;BME280;3335;43.198;27.918;2022-08-11T04:22:26;152484.09;;;20.99;100.00
6599;BME280;3335;43.198;27.918;2022-08-11T04:25:35;152458.94;;;20.88;100.00
6599;BME280;3335;43.198;27.918;2022-08-11T04:31:29;152396.00;;;20.63;100.00
6599;BME280;3335;43.198;27.918;2022-08-11T04:34:05;152431.22;;;20.77;100.00
6599;BME280;3335;43.198;27.918;2022-08-11T04:36:55;152438.81;;;20.80;100.00
6599;BME280;3335;43.198;27.918;2022-08-11T04:40:05;152455.13;;;20.87;100.00
6599;BME280;3335;43.198;27.918;2022-08-11T04:43:14;152458.94;;;20.88;100.00
6599;BME280;3335;43.198;27.918;2022-08-11T04:46:13;152455.13;;;20.87;100.00
6599;BME280;3335;43.198;27.918;2022-08-11T04:49:05;152442.56;;;20.82;100.00
6599;BME280;3335;43.198;27.918;2022-08-11T04:52:22;152451.41;;;20.85;100.00
6599;BME280;3335;43.198;27.918;2022-08-11T04:55:55;152451.41;;;20.85;100.00
6599;BME280;3335;43.198;27.918;2022-08-11T04:59:00;152446.34;;;20.83;100.00
6599;BME280;3335;43.198;27.918;2022-08-11T05:02:09;152453.88;;;20.86;100.00
6599;BME280;3335;43.198;27.918;2022-08-11T05:04:49;152467.72;;;20.92;100.00
6599;BME280;3335;43.198;27.918;2022-08-11T05:11:06;152481.56;;;20.98;100.00
6599;BME280;3335;43.198;27.918;2022-08-11T05:13:44;152486.63;;;21.00;100.00
6599;BME280;3335;43.198;27.918;2022-08-11T05:16:32;152486.63;;;21.00;100.00
6599;BME280;3335;43.198;27.918;2022-08-11T05:19:19;152480.31;;;20.97;100.00
6599;BME280;3335;43.198;27.918;2022-08-11T05:22:06;152486.63;;;21.00;100.00
6599;BME280;3335;43.198;27.918;2022-08-11T05:24:58;152509.28;;;21.09;100.00
6599;BME280;3335;43.198;27.918;2022-08-11T05:27:50;152521.91;;;21.14;100.00
6599;BME280;3335;43.198;27.918;2022-08-11T05:30:41;152562.16;;;21.30;100.00
6599;BME280;3335;43.198;27.918;2022-08-11T05:33:34;152592.38;;;21.42;100.00
6599;BME280;3335;43.198;27.918;2022-08-11T05:36:26;152616.28;;;21.52;100.00
6599;BME280;3335;43.198;27.918;2022-08-11T05:38:59;152640.22;;;21.61;100.00
6599;BME280;3335;43.198;27.918;2022-08-11T05:41:45;152667.88;;;21.72;100.00
6599;BME280;3335;43.198;27.918;2022-08-11T05:44:31;152698.13;;;21.85;100.00
6599;BME280;3335;43.198;27.918;2022-08-11T05:47:23;152723.34;;;21.95;100.00
6599;BME280;3335;43.198;27.918;2022-08-11T05:50:11;152735.94;;;22.00;100.00
6599;BME280;3335;43.198;27.918;2022-08-11T05:52:57;152763.63;;;22.11;100.00
6599;BME280;3335;43.198;27.918;2022-08-11T05:55:43;152781.28;;;22.18;100.00
6599;BME280;3335;43.198;27.918;2022-08-11T05:58:31;152827.88;;;22.37;100.00
6599;BME280;3335;43.198;27.918;2022-08-11T06:00:59;152834.16;;;22.39;100.00
6599;BME280;3335;43.198;27.918;2022-08-11T06:03:28;152869.41;;;22.53;100.00
6599;BME280;3335;43.198;27.918;2022-08-11T06:05:57;152897.13;;;22.64;100.00
6599;BME280;3335;43.198;27.918;2022-08-11T06:08:29;152917.31;;;22.73;100.00
6599;BME280;3335;43.198;27.918;2022-08-11T06:11:03;152945.06;;;22.84;100.00
6599;BME280;3335;43.198;27.918;2022-08-11T06:13:31;152960.19;;;22.90;100.00
6599;BME280;3335;43.198;27.918;2022-08-11T06:16:00;152980.34;;;22.98;100.00
6599;BME280;3335;43.198;27.918;2022-08-11T06:18:28;153008.06;;;23.09;100.00
6599;BME280;3335;43.198;27.918;2022-08-11T06:20:59;153013.06;;;23.11;100.00
6599;BME280;3335;43.198;27.918;2022-08-11T06:23:30;153043.34;;;23.23;100.00
6599;BME280;3335;43.198;27.918;2022-08-11T06:25:59;153047.09;;;23.25;100.00
6599;BME280;3335;43.198;27.918;2022-08-11T06:28:30;153087.44;;;23.41;100.00
6599;BME280;3335;43.198;27.918;2022-08-11T06:30:58;153045.81;;;23.24;100.00
6599;BME280;3335;43.198;27.918;2022-08-11T06:33:32;153118.97;;;23.53;100.00
6599;BME280;3335;43.198;27.918;2022-08-11T06:36:08;153121.50;;;23.54;100.00
6599;BME280;3335;43.198;27.918;2022-08-11T06:38:52;153166.88;;;23.73;100.00
6599;BME280;3335;43.198;27.918;2022-08-11T06:41:26;153175.69;;;23.76;100.00
6599;BME280;3335;43.198;27.918;2022-08-11T06:44:04;153164.34;;;23.72;100.00
6599;BME280;3335;43.198;27.918;2022-08-11T06:46:34;153217.31;;;23.93;100.00
6599;BME280;3335;43.198;27.918;2022-08-11T06:49:04;153240.00;;;24.02;100.00
6599;BME280;3335;43.198;27.918;2022-08-11T06:51:53;153253.88;;;24.08;100.00
6599;BME280;3335;43.198;27.918;2022-08-11T06:54:22;153252.59;;;24.07;100.00
6599;BME280;3335;43.198;27.918;2022-08-11T06:56:49;153285.41;;;24.20;100.00
6599;BME280;3335;43.198;27.918;2022-08-11T06:59:35;153318.19;;;24.33;100.00
6599;BME280;3335;43.198;27.918;2022-08-11T07:02:24;153338.41;;;24.42;100.00
6599;BME280;3335;43.198;27.918;2022-08-11T07:04:58;153359.84;;;24.50;100.00
6599;BME280;3335;43.198;27.918;2022-08-11T07:08:00;153361.09;;;24.51;100.00
6599;BME280;3335;43.198;27.918;2022-08-11T07:11:07;153245.06;;;24.04;100.00
6599;BME280;3335;43.198;27.918;2022-08-11T07:14:00;153309.38;;;24.30;100.00
6599;BME280;3335;43.198;27.918;2022-08-11T07:23:33;153411.56;;;24.71;100.00
6599;BME280;3335;43.198;27.918;2022-08-11T07:26:21;153467.09;;;24.93;100.00
6599;BME280;3335;43.198;27.918;2022-08-11T07:29:09;153487.25;;;25.01;100.00
6599;BME280;3335;43.198;27.918;2022-08-11T07:31:41;153509.97;;;25.10;100.00
6599;BME280;3335;43.198;27.918;2022-08-11T07:34:14;153520.03;;;25.14;100.00
6599;BME280;3335;43.198;27.918;2022-08-11T07:36:50;153556.63;;;25.29;100.00
6599;BME280;3335;43.198;27.918;2022-08-11T07:39:21;153576.84;;;25.37;100.00
6599;BME280;3335;43.198;27.918;2022-08-11T07:41:51;153594.50;;;25.44;100.00
6599;BME280;3335;43.198;27.918;2022-08-11T07:44:19;153602.06;;;25.47;100.00
6599;BME280;3335;43.198;27.918;2022-08-11T07:46:48;153631.13;;;25.59;100.00
6599;BME280;3335;43.198;27.918;2022-08-11T07:49:35;153653.84;;;25.68;100.00
6599;BME280;3335;43.198;27.918;2022-08-11T07:52:21;153674.03;;;25.76;100.00
6599;BME280;3335;43.198;27.918;2022-08-11T07:54:59;153557.91;;;25.30;100.00
6599;BME280;3335;43.198;27.918;2022-08-11T07:57:28;153696.75;;;25.85;100.00
6599;BME280;3335;43.198;27.918;2022-08-11T08:00:14;153670.28;;;25.75;100.00
6599;BME280;3335;43.198;27.918;2022-08-11T08:03:00;153719.50;;;25.94;100.00
6599;BME280;3335;43.198;27.918;2022-08-11T08:05:46;153728.31;;;25.98;100.00
6599;BME280;3335;43.198;27.918;2022-08-11T08:08:31;153732.09;;;25.99;100.00
6599;BME280;3335;43.198;27.918;2022-08-11T08:11:19;153603.31;;;25.48;100.00
6599;BME280;3335;43.198;27.918;2022-08-11T08:14:04;153759.88;;;26.10;100.00
6599;BME280;3335;43.198;27.918;2022-08-11T08:16:49;153795.25;;;26.25;100.00
6599;BME280;3335;43.198;27.918;2022-08-11T08:19:35;153799.06;;;26.26;100.00
6599;BME280;3335;43.198;27.918;2022-08-11T08:22:03;153840.69;;;26.43;100.00
6599;BME280;3335;43.198;27.918;2022-08-11T08:24:30;153848.31;;;26.46;100.00
6599;BME280;3335;43.198;27.918;2022-08-11T08:26:59;153858.41;;;26.50;100.00
6599;BME280;3335;43.198;27.918;2022-08-11T08:29:31;153845.78;;;26.45;100.00
6599;BME280;3335;43.198;27.918;2022-08-11T08:32:17;153907.66;;;26.70;100.00
6599;BME280;3335;43.198;27.918;2022-08-11T08:34:45;153919.03;;;26.74;100.00
6599;BME280;3335;43.198;27.918;2022-08-11T08:37:12;153940.47;;;26.83;100.00
6599;BME280;3335;43.198;27.918;2022-08-11T08:39:40;153946.75;;;26.85;100.00
6599;BME280;3335;43.198;27.918;2022-08-11T08:42:10;153825.59;;;26.37;100.00
6599;BME280;3335;43.198;27.918;2022-08-11T08:44:42;153967.06;;;26.93;98.09
6599;BME280;3335;43.198;27.918;2022-08-11T08:47:13;153979.69;;;26.98;97.19
6599;BME280;3335;43.198;27.918;2022-08-11T08:49:45;153997.34;;;27.06;98.36
6599;BME280;3335;43.198;27.918;2022-08-11T08:52:19;154028.91;;;27.18;94.65
6599;BME280;3335;43.198;27.918;2022-08-11T08:54:50;154027.69;;;27.18;95.30
6599;BME280;3335;43.198;27.918;2022-08-11T08:57:22;154076.91;;;27.37;96.35
6599;BME280;3335;43.198;27.918;2022-08-11T08:59:50;154104.75;;;27.49;94.31
6599;BME280;3335;43.198;27.918;2022-08-11T09:02:18;154123.69;;;27.56;94.77
6599;BME280;3335;43.198;27.918;2022-08-11T09:04:46;154165.41;;;27.73;96.53
6599;BME280;3335;43.198;27.918;2022-08-11T09:07:16;154175.50;;;27.77;94.24
6599;BME280;3335;43.198;27.918;2022-08-11T09:09:46;154212.16;;;27.92;88.93
6599;BME280;3335;43.198;27.918;2022-08-11T09:12:15;154196.97;;;27.85;88.75
6599;BME280;3335;43.198;27.918;2022-08-11T09:14:47;154207.06;;;27.90;85.88
6599;BME280;3335;43.198;27.918;2022-08-11T09:17:30;154221.00;;;27.95;86.01
6599;BME280;3335;43.198;27.918;2022-08-11T09:20:05;154232.34;;;28.00;87.73
6599;BME280;3335;43.198;27.918;2022-08-11T09:22:34;154260.22;;;28.11;85.88
6599;BME280;3335;43.198;27.918;2022-08-11T09:25:20;154298.16;;;28.26;87.20
6599;BME280;3335;43.198;27.918;2022-08-11T09:28:09;154331.00;;;28.39;86.73
6599;BME280;3335;43.198;27.918;2022-08-11T09:30:39;154349.94;;;28.47;82.68
6599;BME280;3335;43.198;27.918;2022-08-11T09:33:08;154362.56;;;28.52;83.54
6599;BME280;3335;43.198;27.918;2022-08-11T09:35:38;154379.03;;;28.58;82.26
6599;BME280;3335;43.198;27.918;2022-08-11T09:38:12;154391.69;;;28.63;82.14
6599;BME280;3335;43.198;27.918;2022-08-11T09:40:58;154425.84;;;28.77;82.44
6599;BME280;3335;43.198;27.918;2022-08-11T09:43:27;154413.22;;;28.72;80.71
6599;BME280;3335;43.198;27.918;2022-08-11T09:46:13;154462.53;;;28.92;79.58
6599;BME280;3335;43.198;27.918;2022-08-11T09:48:43;154472.63;;;28.96;78.19
6599;BME280;3335;43.198;27.918;2022-08-11T09:51:11;154441.03;;;28.83;76.14
6599;BME280;3335;43.198;27.918;2022-08-11T09:53:41;154463.78;;;28.92;77.47
6599;BME280;3335;43.198;27.918;2022-08-11T09:56:12;154471.34;;;28.95;76.40
6599;BME280;3335;43.198;27.918;2022-08-11T09:58:58;154514.38;;;29.12;77.23
6599;BME280;3335;43.198;27.918;2022-08-11T10:01:29;154490.34;;;29.03;72.60
6599;BME280;3335;43.198;27.918;2022-08-11T10:03:59;154494.09;;;29.04;72.50
6599;BME280;3335;43.198;27.918;2022-08-11T10:06:28;154511.84;;;29.11;73.33
6599;BME280;3335;43.198;27.918;2022-08-11T10:09:17;154552.28;;;29.28;71.32
6599;BME280;3335;43.198;27.918;2022-08-11T10:11:46;154548.50;;;29.26;70.00
6599;BME280;3335;43.198;27.918;2022-08-11T10:14:15;154539.63;;;29.23;71.49
6599;BME280;3335;43.198;27.918;2022-08-11T10:17:05;154570.06;;;29.35;72.93
6599;BME280;3335;43.198;27.918;2022-08-11T10:19:34;154594.06;;;29.44;71.30
6599;BME280;3335;43.198;27.918;2022-08-11T10:22:03;154628.22;;;29.58;70.58
6599;BME280;3335;43.198;27.918;2022-08-11T10:24:49;154677.56;;;29.78;68.13
6599;BME280;3335;43.198;27.918;2022-08-11T10:27:35;154700.31;;;29.87;66.68
6599;BME280;3335;43.198;27.918;2022-08-11T10:30:02;154695.25;;;29.85;68.02
6599;BME280;3335;43.198;27.918;2022-08-11T10:32:49;154720.59;;;29.95;67.49
6599;BME280;3335;43.198;27.918;2022-08-11T10:35:34;154702.84;;;29.88;65.68
6599;BME280;3335;43.198;27.918;2022-08-11T10:38:02;154726.94;;;29.97;66.16
6599;BME280;3335;43.198;27.918;2022-08-11T10:40:30;154758.56;;;30.10;66.95
6599;BME280;3335;43.198;27.918;2022-08-11T10:43:00;154783.88;;;30.20;65.73
6599;BME280;3335;43.198;27.918;2022-08-11T10:45:28;154781.31;;;30.19;66.00
6599;BME280;3335;43.198;27.918;2022-08-11T10:48:15;154836.97;;;30.41;66.77
6599;BME280;3335;43.198;27.918;2022-08-11T10:50:46;154875.00;;;30.57;63.90
6599;BME280;3335;43.198;27.918;2022-08-11T10:53:32;154918.06;;;30.74;65.18
6599;BME280;3335;43.198;27.918;2022-08-11T10:56:18;154928.19;;;30.78;60.53
6599;BME280;3335;43.198;27.918;2022-08-11T10:59:03;154943.38;;;30.84;60.38
6599;BME280;3335;43.198;27.918;2022-08-11T11:01:36;154940.84;;;30.83;60.51
6599;BME280;3335;43.198;27.918;2022-08-11T11:04:07;154923.09;;;30.76;59.05
6599;BME280;3335;43.198;27.918;2022-08-11T11:06:45;154918.06;;;30.74;59.22
6599;BME280;3335;43.198;27.918;2022-08-11T11:09:17;154953.50;;;30.88;60.77
6599;BME280;3335;43.198;27.918;2022-08-11T11:11:48;154945.88;;;30.85;61.86
6599;BME280;3335;43.198;27.918;2022-08-11T11:14:35;155004.13;;;31.08;60.76
6599;BME280;3335;43.198;27.918;2022-08-11T11:17:26;154896.50;;;30.65;57.76
6599;BME280;3335;43.198;27.918;2022-08-11T11:20:17;155032.00;;;31.19;58.89
6599;BME280;3335;43.198;27.918;2022-08-11T11:22:45;155085.19;;;31.41;59.10
6599;BME280;3335;43.198;27.918;2022-08-11T11:25:22;155102.91;;;31.48;54.39
6599;BME280;3335;43.198;27.918;2022-08-11T11:28:04;155014.31;;;31.12;55.33
6599;BME280;3335;43.198;27.918;2022-08-11T11:30:44;155181.44;;;31.79;57.77
6599;BME280;3335;43.198;27.918;2022-08-11T11:33:19;155194.09;;;31.84;56.27
6599;BME280;3335;43.198;27.918;2022-08-11T11:35:58;155244.75;;;32.04;56.98
6599;BME280;3335;43.198;27.918;2022-08-11T11:38:29;155290.41;;;32.23;55.66
6599;BME280;3335;43.198;27.918;2022-08-11T11:40:56;155272.69;;;32.16;53.04
6599;BME280;3335;43.198;27.918;2022-08-11T11:43:41;155244.75;;;32.04;53.16
6599;BME280;3335;43.198;27.918;2022-08-11T11:46:10;155213.13;;;31.92;52.94
6599;BME280;3335;43.198;27.918;2022-08-11T11:48:39;155237.19;;;32.01;54.59
6599;BME280;3335;43.198;27.918;2022-08-11T11:51:09;155270.16;;;32.15;53.60
6599;BME280;3335;43.198;27.918;2022-08-11T11:53:40;155295.47;;;32.25;53.30
6599;BME280;3335;43.198;27.918;2022-08-11T11:56:08;155265.06;;;32.12;53.11
6599;BME280;3335;43.198;27.918;2022-08-11T11:58:38;155318.28;;;32.34;53.41
6599;BME280;3335;43.198;27.918;2022-08-11T12:01:23;155292.94;;;32.24;52.19
6599;BME280;3335;43.198;27.918;2022-08-11T12:03:52;155265.06;;;32.12;51.99
6599;BME280;3335;43.198;27.918;2022-08-11T12:06:23;155242.22;;;32.03;51.05
6599;BME280;3335;43.198;27.918;2022-08-11T12:08:54;155270.16;;;32.15;51.79
6599;BME280;3335;43.198;27.918;2022-08-11T12:11:23;155260.03;;;32.10;50.63
6599;BME280;3335;43.198;27.918;2022-08-11T12:14:23;155292.94;;;32.24;50.88
6599;BME280;3335;43.198;27.918;2022-08-11T12:16:54;155282.81;;;32.20;49.78
6599;BME280;3335;43.198;27.918;2022-08-11T12:19:23;155295.47;;;32.25;49.88
6599;BME280;3335;43.198;27.918;2022-08-11T12:21:56;155368.97;;;32.54;49.90
6599;BME280;3335;43.198;27.918;2022-08-11T12:28:03;155375.28;;;32.56;49.12
6599;BME280;3335;43.198;27.918;2022-08-11T12:30:30;155363.88;;;32.52;50.40
6599;BME280;3335;43.198;27.918;2022-08-11T12:32:57;155346.16;;;32.45;49.32
6599;BME280;3335;43.198;27.918;2022-08-11T12:35:24;155381.63;;;32.59;49.81
6599;BME280;3335;43.198;27.918;2022-08-11T12:37:54;155394.34;;;32.64;50.53
6599;BME280;3335;43.198;27.918;2022-08-11T12:40:26;155315.75;;;32.33;51.57
6599;BME280;3335;43.198;27.918;2022-08-11T12:43:13;155323.38;;;32.36;52.05
6599;BME280;3335;43.198;27.918;2022-08-11T12:46:00;155325.84;;;32.37;52.83
6599;BME280;3335;43.198;27.918;2022-08-11T12:48:31;155260.03;;;32.10;51.16
6599;BME280;3335;43.198;27.918;2022-08-11T12:51:20;155210.56;;;31.91;51.46
6599;BME280;3335;43.198;27.918;2022-08-11T12:54:10;155140.94;;;31.63;51.48
6599;BME280;3335;43.198;27.918;2022-08-11T12:56:42;155067.44;;;31.34;51.95
6599;BME280;3335;43.198;27.918;2022-08-11T12:59:28;155011.75;;;31.11;52.28
6599;BME280;3335;43.198;27.918;2022-08-11T13:02:16;155059.88;;;31.31;53.12
6599;BME280;3335;43.198;27.918;2022-08-11T13:05:01;155056.06;;;31.29;52.56
6599;BME280;3335;43.198;27.918;2022-08-11T13:07:29;155029.47;;;31.18;53.39
6599;BME280;3335;43.198;27.918;2022-08-11T13:10:00;154988.97;;;31.02;53.29
6599;BME280;3335;43.198;27.918;2022-08-11T13:12:29;154959.81;;;30.91;54.64
6599;BME280;3335;43.198;27.918;2022-08-11T13:15:16;154968.66;;;30.94;53.73
6599;BME280;3335;43.198;27.918;2022-08-11T13:17:44;154962.34;;;30.92;54.11
6599;BME280;3335;43.198;27.918;2022-08-11T13:20:15;154959.81;;;30.91;53.79
6599;BME280;3335;43.198;27.918;2022-08-11T13:22:48;154950.94;;;30.87;55.84
6599;BME280;3335;43.198;27.918;2022-08-11T13:25:18;154895.28;;;30.65;57.29
6599;BME280;3335;43.198;27.918;2022-08-11T13:27:47;154872.47;;;30.56;56.68
6599;BME280;3335;43.198;27.918;2022-08-11T13:30:16;154852.22;;;30.48;57.29
6599;BME280;3335;43.198;27.918;2022-08-11T13:33:02;154811.72;;;30.31;59.21
6599;BME280;3335;43.198;27.918;2022-08-11T13:35:31;154826.88;;;30.37;58.26
6599;BME280;3335;43.198;27.918;2022-08-11T13:38:01;154845.88;;;30.45;59.71
6599;BME280;3335;43.198;27.918;2022-08-11T13:40:31;154723.13;;;29.96;57.73
6599;BME280;3335;43.198;27.918;2022-08-11T13:42:59;154844.59;;;30.45;57.31
6599;BME280;3335;43.198;27.918;2022-08-11T13:45:26;154814.22;;;30.32;61.04
6599;BME280;3335;43.198;27.918;2022-08-11T13:47:55;154799.06;;;30.26;61.57
6599;BME280;3335;43.198;27.918;2022-08-11T13:50:25;154814.22;;;30.32;59.66
6599;BME280;3335;43.198;27.918;2022-08-11T13:53:14;154843.34;;;30.44;59.48
6599;BME280;3335;43.198;27.918;2022-08-11T13:55:44;154892.75;;;30.64;61.01
6599;BME280;3335;43.198;27.918;2022-08-11T13:58:12;154980.03;;;30.99;58.57
6599;BME280;3335;43.198;27.918;2022-08-11T14:00:40;155029.47;;;31.18;55.76
6599;BME280;3335;43.198;27.918;2022-08-11T14:03:11;154992.75;;;31.04;55.49
6599;BME280;3335;43.198;27.918;2022-08-11T14:05:40;154961.06;;;30.91;55.79
6599;BME280;3335;43.198;27.918;2022-08-11T14:08:10;154902.84;;;30.68;55.43
6599;BME280;3335;43.198;27.918;2022-08-11T14:10:39;154840.78;;;30.43;55.68
6599;BME280;3335;43.198;27.918;2022-08-11T14:13:10;154838.25;;;30.42;57.73
6599;BME280;3335;43.198;27.918;2022-08-11T14:16:14;154754.75;;;30.09;61.00
6599;BME280;3335;43.198;27.918;2022-08-11T14:18:45;154763.63;;;30.12;58.98
6599;BME280;3335;43.198;27.918;2022-08-11T14:21:15;154759.81;;;30.11;61.81
6599;BME280;3335;43.198;27.918;2022-08-11T14:24:01;154735.78;;;30.01;58.52
6599;BME280;3335;43.198;27.918;2022-08-11T14:26:29;154725.69;;;29.97;59.78
6599;BME280;3335;43.198;27.918;2022-08-11T14:29:07;154697.78;;;29.86;60.69
6599;BME280;3335;43.198;27.918;2022-08-11T14:31:37;154706.66;;;29.89;59.72
6599;BME280;3335;43.198;27.918;2022-08-11T14:34:06;154731.97;;;29.99;58.62
6599;BME280;3335;43.198;27.918;2022-08-11T14:36:36;154739.59;;;30.03;59.42
6599;BME280;3335;43.198;27.918;2022-08-11T14:39:08;154728.22;;;29.98;59.33
6599;BME280;3335;43.198;27.918;2022-08-11T14:41:37;154748.44;;;30.06;58.85